createdAt,value
2018-09-01T00:01:22.852Z,96.40
2018-09-01T00:03:50.797Z,96.50
2018-09-01T00:06:18.333Z,96.60
2018-09-01T00:08:45.906Z,96.70
2018-09-01T00:11:14.504Z,96.80
2018-09-01T00:13:42.036Z,96.80
2018-09-01T00:16:10.693Z,96.80
2018-09-01T00:18:38.229Z,96.90
2018-09-01T00:21:07.414Z,96.80
2018-09-01T00:23:36.381Z,97.00
2018-09-01T00:26:04.508Z,96.70
2018-09-01T00:28:32.058Z,96.80
2018-09-01T00:31:00.815Z,96.70
2018-09-01T00:33:29.513Z,97.00
2018-09-01T00:35:57.864Z,97.10
2018-09-01T00:38:31.056Z,97.20
2018-09-01T00:40:58.768Z,97.20
2018-09-01T00:43:26.370Z,97.20
2018-09-01T00:45:56.098Z,97.20
2018-09-01T00:48:25.760Z,97.20
2018-09-01T00:50:53.721Z,97.30
2018-09-01T00:53:22.371Z,97.40
2018-09-01T00:55:49.840Z,97.30
2018-09-01T00:58:17.357Z,97.50
2018-09-01T01:00:46.449Z,97.60
2018-09-01T01:03:14.937Z,97.70
2018-09-01T01:05:43.407Z,97.70
2018-09-01T01:08:11.467Z,97.70
2018-09-01T01:10:39.333Z,97.80
2018-09-01T01:13:06.805Z,97.70
2018-09-01T01:15:34.321Z,97.90
2018-09-01T01:18:02.081Z,97.90
2018-09-01T01:20:29.578Z,98.00
2018-09-01T01:22:57.064Z,98.10
2018-09-01T01:25:24.503Z,98.00
2018-09-01T01:27:52.105Z,98.10
2018-09-01T01:30:19.721Z,98.10
2018-09-01T01:32:47.303Z,98.10
2018-09-01T01:35:14.821Z,98.10
2018-09-01T01:37:42.399Z,98.10
2018-09-01T01:40:09.880Z,98.20
2018-09-01T01:42:37.428Z,98.20
2018-09-01T01:45:05.404Z,98.10
2018-09-01T01:47:37.382Z,98.20
2018-09-01T01:50:06.385Z,98.10
2018-09-01T01:52:33.994Z,98.40
2018-09-01T01:55:01.508Z,98.40
2018-09-01T01:57:29.071Z,98.50
2018-09-01T01:59:56.641Z,98.40
2018-09-01T02:02:24.168Z,98.40
2018-09-01T02:04:51.717Z,98.20
2018-09-01T02:07:19.259Z,98.40
2018-09-01T02:09:46.844Z,98.30
2018-09-01T02:12:14.330Z,98.30
2018-09-01T02:14:41.832Z,98.30
2018-09-01T02:17:09.415Z,98.30
2018-09-01T02:19:36.976Z,98.40
2018-09-01T02:22:04.581Z,98.50
2018-09-01T02:24:32.059Z,98.50
2018-09-01T02:26:59.647Z,98.60
2018-09-01T02:29:27.228Z,98.60
2018-09-01T02:31:54.704Z,98.70
2018-09-01T02:34:22.177Z,98.70
2018-09-01T02:36:49.837Z,98.80
2018-09-01T02:39:17.538Z,98.80
2018-09-01T02:41:45.096Z,98.80
2018-09-01T02:44:12.576Z,98.90
2018-09-01T02:46:40.148Z,98.80
2018-09-01T02:49:07.657Z,98.90
2018-09-01T02:51:35.200Z,98.90
2018-09-01T02:54:04.773Z,99.00
2018-09-01T02:56:32.415Z,99.10
2018-09-01T02:58:59.867Z,99.00
2018-09-01T03:01:36.326Z,98.90
2018-09-01T03:04:04.536Z,99.00
2018-09-01T03:06:43.619Z,99.00
2018-09-01T03:09:11.173Z,99.00
2018-09-01T03:11:38.759Z,99.10
2018-09-01T03:14:06.291Z,99.20
2018-09-01T03:16:33.875Z,99.20
2018-09-01T03:19:01.431Z,99.30
2018-09-01T03:21:28.958Z,99.20
2018-09-01T03:23:56.472Z,99.40
2018-09-01T03:26:24.034Z,99.50
2018-09-01T03:28:51.593Z,99.50
2018-09-01T03:31:21.203Z,99.50
2018-09-01T03:33:51.020Z,99.50
2018-09-01T03:36:18.513Z,99.60
2018-09-01T03:38:46.104Z,99.60
2018-09-01T03:41:13.563Z,99.60
2018-09-01T03:43:43.382Z,99.70
2018-09-01T03:46:10.961Z,99.70
2018-09-01T03:48:38.920Z,99.80
2018-09-01T03:51:06.578Z,99.70
2018-09-01T03:53:34.061Z,99.70
2018-09-01T03:56:01.633Z,99.80
2018-09-01T03:58:29.220Z,99.70
2018-09-01T04:00:56.830Z,99.90
2018-09-01T04:03:24.423Z,99.90
2018-09-01T04:05:52.095Z,99.90
2018-09-01T04:08:19.637Z,99.90
2018-09-01T04:10:47.206Z,99.90
2018-09-01T04:13:14.728Z,99.90
2018-09-01T04:15:42.248Z,99.90
2018-09-01T04:18:09.877Z,99.90
2018-09-01T04:20:37.340Z,99.90
2018-09-01T04:23:04.905Z,99.90
2018-09-01T04:25:32.455Z,99.90
2018-09-01T04:28:00.178Z,99.90
2018-09-01T04:30:27.701Z,99.90
2018-09-01T04:32:55.401Z,99.90
2018-09-01T04:35:22.881Z,99.90
2018-09-01T04:37:50.504Z,99.90
2018-09-01T04:40:18.048Z,99.90
2018-09-01T04:42:45.614Z,99.90
2018-09-01T04:45:13.197Z,99.90
2018-09-01T04:47:40.759Z,99.90
2018-09-01T04:50:11.859Z,99.90
2018-09-01T04:52:39.367Z,99.90
2018-09-01T04:55:07.220Z,99.90
2018-09-01T04:57:34.859Z,99.90
2018-09-01T05:00:02.449Z,99.90
2018-09-01T05:02:30.021Z,99.90
2018-09-01T05:04:57.681Z,99.90
2018-09-01T05:07:25.306Z,99.90
2018-09-01T05:09:52.963Z,99.90
2018-09-01T05:12:20.996Z,99.90
2018-09-01T05:14:48.623Z,99.90
2018-09-01T05:17:16.224Z,99.90
2018-09-01T05:19:44.064Z,99.90
2018-09-01T05:22:11.785Z,99.90
2018-09-01T05:24:39.529Z,99.90
2018-09-01T05:27:07.442Z,99.90
2018-09-01T05:29:35.092Z,99.90
2018-09-01T05:32:02.757Z,99.90
2018-09-01T05:34:30.259Z,99.90
2018-09-01T05:36:57.927Z,99.90
2018-09-01T05:39:25.380Z,99.90
2018-09-01T05:41:52.916Z,99.90
2018-09-01T05:44:20.465Z,99.90
2018-09-01T05:46:47.962Z,99.90
2018-09-01T05:49:15.431Z,99.90
2018-09-01T05:51:43.135Z,99.90
2018-09-01T05:54:10.627Z,99.90
2018-09-01T05:56:38.168Z,99.90
2018-09-01T05:59:05.948Z,99.90
2018-09-01T06:01:33.459Z,99.90
2018-09-01T06:04:01.021Z,99.90
2018-09-01T06:06:28.650Z,99.90
2018-09-01T06:08:56.101Z,99.90
2018-09-01T06:11:23.647Z,99.90
2018-09-01T06:13:51.137Z,99.90
2018-09-01T06:16:18.757Z,99.90
2018-09-01T06:18:46.293Z,99.90
2018-09-01T06:21:14.028Z,99.90
2018-09-01T06:23:41.635Z,99.90
2018-09-01T06:26:09.749Z,99.90
2018-09-01T06:28:43.502Z,99.90
2018-09-01T06:31:12.207Z,99.90
2018-09-01T06:33:39.957Z,99.90
2018-09-01T06:36:07.529Z,99.90
2018-09-01T06:38:37.219Z,99.90
2018-09-01T06:41:05.125Z,99.90
2018-09-01T06:43:32.620Z,99.90
2018-09-01T06:46:00.637Z,99.90
2018-09-01T06:48:28.464Z,99.90
2018-09-01T06:50:56.029Z,99.90
2018-09-01T06:53:23.656Z,99.90
2018-09-01T06:55:51.795Z,99.90
2018-09-01T06:58:19.358Z,99.90
2018-09-01T07:00:48.065Z,99.90
2018-09-01T07:03:15.739Z,99.90
2018-09-01T07:05:43.362Z,99.90
2018-09-01T07:08:20.784Z,99.90
2018-09-01T07:10:48.624Z,99.90
2018-09-01T07:13:16.475Z,99.80
2018-09-01T07:15:44.849Z,99.70
2018-09-01T07:18:12.760Z,99.60
2018-09-01T07:20:40.532Z,99.50
2018-09-01T07:23:14.615Z,99.70
2018-09-01T07:25:42.111Z,99.60
2018-09-01T07:28:12.428Z,99.40
2018-09-01T07:30:41.686Z,99.30
2018-09-01T07:33:09.664Z,99.20
2018-09-01T07:35:52.272Z,98.90
2018-09-01T07:38:20.028Z,98.90
2018-09-01T07:40:47.759Z,98.80
2018-09-01T07:43:15.614Z,98.80
2018-09-01T07:45:44.138Z,98.80
2018-09-01T07:48:11.792Z,98.50
2018-09-01T07:50:40.056Z,98.40
2018-09-01T07:53:07.574Z,98.20
2018-09-01T07:55:35.505Z,98.10
2018-09-01T07:58:04.487Z,97.70
2018-09-01T08:00:32.092Z,97.60
2018-09-01T08:02:59.695Z,97.80
2018-09-01T08:05:27.740Z,97.70
2018-09-01T08:07:56.562Z,97.20
2018-09-01T08:10:25.378Z,97.10
2018-09-01T08:12:53.338Z,96.80
2018-09-01T08:15:24.183Z,96.70
2018-09-01T08:17:53.981Z,95.90
2018-09-01T08:20:23.375Z,96.30
2018-09-01T08:22:54.430Z,95.80
2018-09-01T08:25:22.446Z,95.50
2018-09-01T08:27:50.812Z,94.90
2018-09-01T08:30:18.397Z,95.00
2018-09-01T08:32:46.165Z,94.70
2018-09-01T08:35:13.826Z,94.60
2018-09-01T08:37:41.404Z,94.20
2018-09-01T08:40:09.146Z,93.90
2018-09-01T08:42:36.772Z,93.80
2018-09-01T08:45:04.305Z,93.90
2018-09-01T08:47:33.980Z,93.80
2018-09-01T08:50:05.805Z,93.60
2018-09-01T08:52:33.451Z,93.30
2018-09-01T08:55:00.945Z,92.80
2018-09-01T08:57:28.530Z,93.10
2018-09-01T08:59:56.092Z,93.20
2018-09-01T09:02:24.308Z,93.00
2018-09-01T09:04:52.726Z,92.40
2018-09-01T09:07:20.336Z,92.10
2018-09-01T09:09:50.072Z,92.20
2018-09-01T09:12:18.065Z,92.20
2018-09-01T09:14:45.697Z,92.00
2018-09-01T09:17:13.301Z,92.00
2018-09-01T09:19:41.671Z,91.60
2018-09-01T09:22:11.122Z,91.50
2018-09-01T09:24:38.813Z,91.30
2018-09-01T09:27:06.551Z,91.30
2018-09-01T09:29:34.223Z,90.70
2018-09-01T09:32:02.062Z,90.80
2018-09-01T09:34:34.899Z,90.60
2018-09-01T09:37:03.230Z,90.60
2018-09-01T09:39:31.825Z,90.50
2018-09-01T09:41:59.586Z,90.10
2018-09-01T09:44:27.971Z,90.10
2018-09-01T09:46:55.603Z,89.50
2018-09-01T09:49:23.072Z,89.00
2018-09-01T09:51:51.451Z,89.40
2018-09-01T09:54:19.024Z,87.90
2018-09-01T09:56:46.755Z,87.60
2018-09-01T09:59:14.544Z,87.90
2018-09-01T10:01:42.304Z,87.50
2018-09-01T10:04:10.683Z,87.40
2018-09-01T10:06:39.247Z,86.70
2018-09-01T10:09:11.300Z,86.20
2018-09-01T10:11:39.299Z,86.00
2018-09-01T10:14:07.839Z,86.10
2018-09-01T10:16:35.432Z,85.60
2018-09-01T10:19:02.955Z,85.60
2018-09-01T10:21:30.396Z,83.60
2018-09-01T10:23:58.135Z,84.10
2018-09-01T10:26:25.961Z,82.90
2018-09-01T10:28:53.728Z,82.50
2018-09-01T10:31:21.332Z,82.30
2018-09-01T10:33:49.489Z,81.90
2018-09-01T10:36:17.048Z,82.50
2018-09-01T10:38:44.643Z,81.00
2018-09-01T10:41:12.900Z,81.80
2018-09-01T10:43:41.470Z,81.10
2018-09-01T10:46:08.951Z,80.50
2018-09-01T10:48:39.579Z,80.30
2018-09-01T10:51:08.213Z,80.50
2018-09-01T10:53:35.898Z,80.30
2018-09-01T10:56:03.424Z,80.10
2018-09-01T10:58:31.133Z,79.20
2018-09-01T11:00:58.737Z,79.80
2018-09-01T11:03:32.786Z,79.60
2018-09-01T11:06:00.360Z,80.20
2018-09-01T11:08:27.819Z,80.20
2018-09-01T11:10:56.595Z,80.10
2018-09-01T11:13:24.214Z,78.60
2018-09-01T11:15:51.829Z,77.90
2018-09-01T11:18:19.489Z,78.80
2018-09-01T11:20:47.564Z,79.50
2018-09-01T11:23:16.745Z,79.90
2018-09-01T11:25:44.347Z,78.60
2018-09-01T11:28:12.117Z,76.40
2018-09-01T11:30:39.780Z,75.90
2018-09-01T11:33:07.496Z,74.60
2018-09-01T11:35:35.914Z,75.70
2018-09-01T11:38:05.499Z,78.10
2018-09-01T11:40:33.157Z,78.80
2018-09-01T11:43:01.074Z,81.70
2018-09-01T11:45:28.574Z,77.40
2018-09-01T11:47:56.850Z,73.20
2018-09-01T11:50:25.479Z,70.80
2018-09-01T11:52:55.164Z,67.70
2018-09-01T11:55:23.762Z,70.50
2018-09-01T11:57:55.422Z,72.70
2018-09-01T12:00:23.647Z,71.80
2018-09-01T12:02:54.508Z,69.20
2018-09-01T12:05:23.136Z,66.00
2018-09-01T12:07:50.633Z,63.20
2018-09-01T12:10:18.161Z,60.30
2018-09-01T12:12:45.766Z,59.20
2018-09-01T12:15:13.271Z,58.70
2018-09-01T12:17:43.594Z,59.70
2018-09-01T12:20:12.156Z,61.30
2018-09-01T12:22:39.775Z,63.10
2018-09-01T12:25:07.486Z,64.20
2018-09-01T12:27:34.936Z,66.50
2018-09-01T12:30:02.591Z,67.20
2018-09-01T12:32:31.471Z,68.10
2018-09-01T12:35:03.601Z,68.40
2018-09-01T12:37:31.886Z,68.60
2018-09-01T12:40:05.222Z,68.90
2018-09-01T12:42:32.777Z,68.90
2018-09-01T12:45:00.388Z,69.90
2018-09-01T12:47:27.868Z,69.90
2018-09-01T12:49:55.457Z,69.70
2018-09-01T12:52:23.059Z,68.50
2018-09-01T12:54:51.937Z,68.60
2018-09-01T12:57:19.637Z,68.00
2018-09-01T12:59:47.123Z,67.70
2018-09-01T13:02:20.177Z,67.60
2018-09-01T13:04:47.844Z,67.60
2018-09-01T13:07:15.320Z,66.20
2018-09-01T13:09:42.931Z,64.30
2018-09-01T13:12:10.534Z,63.80
2018-09-01T13:14:38.468Z,62.70
2018-09-01T13:17:06.115Z,61.10
2018-09-01T13:19:33.667Z,60.40
2018-09-01T13:22:01.342Z,59.50
2018-09-01T13:24:29.418Z,61.20
2018-09-01T13:26:57.252Z,61.90
2018-09-01T13:29:24.907Z,64.10
2018-09-01T13:31:52.525Z,64.70
2018-09-01T13:34:20.328Z,64.90
2018-09-01T13:36:47.933Z,66.90
2018-09-01T13:39:15.414Z,67.20
2018-09-01T13:41:42.903Z,67.10
2018-09-01T13:44:10.652Z,67.40
2018-09-01T13:46:38.321Z,66.90
2018-09-01T13:49:06.780Z,67.30
2018-09-01T13:51:34.720Z,67.40
2018-09-01T13:54:05.203Z,66.90
2018-09-01T13:56:32.734Z,66.40
2018-09-01T13:59:00.224Z,66.80
2018-09-01T14:01:28.025Z,67.10
2018-09-01T14:03:56.902Z,66.50
2018-09-01T14:06:25.364Z,67.40
2018-09-01T14:08:53.719Z,67.80
2018-09-01T14:11:21.293Z,68.30
2018-09-01T14:13:48.920Z,68.50
2018-09-01T14:16:16.436Z,69.50
2018-09-01T14:18:44.184Z,69.60
2018-09-01T14:21:11.805Z,69.90
2018-09-01T14:23:39.329Z,70.90
2018-09-01T14:26:06.807Z,71.20
2018-09-01T14:28:34.333Z,72.60
2018-09-01T14:31:01.828Z,72.50
2018-09-01T14:33:29.344Z,73.20
2018-09-01T14:35:58.078Z,73.90
2018-09-01T14:38:26.139Z,74.60
2018-09-01T14:40:54.433Z,75.50
2018-09-01T14:43:22.442Z,76.90
2018-09-01T14:45:50.668Z,77.10
2018-09-01T14:48:18.677Z,78.20
2018-09-01T14:50:46.466Z,78.10
2018-09-01T14:53:13.928Z,78.10
2018-09-01T14:55:51.057Z,78.90
2018-09-01T14:58:18.627Z,79.30
2018-09-01T15:00:46.168Z,79.40
2018-09-01T15:03:14.447Z,79.50
2018-09-01T15:05:42.259Z,80.30
2018-09-01T15:08:10.051Z,80.30
2018-09-01T15:10:37.786Z,81.00
2018-09-01T15:13:05.851Z,80.50
2018-09-01T15:15:33.391Z,80.80
2018-09-01T15:18:01.519Z,80.80
2018-09-01T15:20:29.593Z,81.30
2018-09-01T15:22:57.592Z,81.70
2018-09-01T15:25:25.197Z,81.40
2018-09-01T15:27:53.150Z,82.00
2018-09-01T15:30:21.408Z,81.70
2018-09-01T15:32:49.357Z,81.80
2018-09-01T15:35:17.457Z,81.70
2018-09-01T15:37:46.163Z,81.90
2018-09-01T15:40:14.195Z,82.00
2018-09-01T15:42:42.282Z,82.50
2018-09-01T15:45:10.251Z,82.20
2018-09-01T15:47:38.525Z,82.30
2018-09-01T15:50:06.588Z,83.10
2018-09-01T15:52:36.801Z,83.10
2018-09-01T15:55:08.552Z,83.10
2018-09-01T15:57:40.182Z,83.60
2018-09-01T16:00:08.608Z,82.80
2018-09-01T16:02:36.867Z,82.90
2018-09-01T16:05:06.867Z,82.80
2018-09-01T16:07:34.640Z,82.80
2018-09-01T16:10:02.607Z,83.80
2018-09-01T16:12:30.791Z,83.00
2018-09-01T16:15:00.986Z,83.10
2018-09-01T16:17:28.743Z,83.60
2018-09-01T16:19:56.283Z,83.40
2018-09-01T16:22:24.591Z,84.00
2018-09-01T16:24:52.455Z,84.10
2018-09-01T16:27:20.683Z,84.30
2018-09-01T16:29:48.310Z,84.70
2018-09-01T16:32:17.796Z,84.60
2018-09-01T16:34:46.012Z,84.10
2018-09-01T16:37:14.005Z,84.10
2018-09-01T16:39:42.095Z,84.40
2018-09-01T16:42:09.834Z,85.00
2018-09-01T16:44:37.907Z,85.00
2018-09-01T16:47:05.819Z,85.30
2018-09-01T16:49:33.887Z,85.00
2018-09-01T16:52:02.514Z,85.80
2018-09-01T16:54:32.932Z,85.10
2018-09-01T16:57:01.368Z,85.30
2018-09-01T16:59:29.055Z,85.10
2018-09-01T17:01:57.128Z,85.90
2018-09-01T17:04:26.970Z,85.70
2018-09-01T17:06:55.233Z,85.70
2018-09-01T17:09:23.498Z,86.60
2018-09-01T17:11:52.735Z,86.10
2018-09-01T17:14:21.183Z,86.50
2018-09-01T17:16:49.537Z,85.60
2018-09-01T17:19:17.080Z,86.40
2018-09-01T17:21:45.608Z,86.10
2018-09-01T17:24:16.945Z,86.10
2018-09-01T17:26:45.424Z,85.70
2018-09-01T17:29:13.896Z,86.30
2018-09-01T17:31:42.484Z,86.30
2018-09-01T17:34:10.073Z,86.90
2018-09-01T17:36:38.554Z,86.60
2018-09-01T17:39:11.015Z,86.60
2018-09-01T17:41:40.746Z,86.80
2018-09-01T17:44:09.308Z,86.80
2018-09-01T17:46:39.037Z,87.00
2018-09-01T17:49:08.137Z,87.30
2018-09-01T17:51:35.775Z,87.10
2018-09-01T17:54:03.899Z,87.10
2018-09-01T17:56:32.233Z,87.20
2018-09-01T17:59:04.688Z,87.40
2018-09-01T18:01:33.050Z,87.60
2018-09-01T18:04:00.787Z,88.30
2018-09-01T18:06:28.459Z,88.00
2018-09-01T18:08:56.333Z,88.60
2018-09-01T18:11:23.922Z,88.20
2018-09-01T18:13:51.860Z,88.90
2018-09-01T18:16:19.840Z,88.90
2018-09-01T18:18:47.371Z,88.80
2018-09-01T18:21:14.977Z,88.60
2018-09-01T18:23:42.716Z,89.10
2018-09-01T18:26:10.208Z,89.00
2018-09-01T18:28:37.743Z,89.20
2018-09-01T18:31:05.860Z,89.20
2018-09-01T18:33:37.206Z,89.70
2018-09-01T18:36:10.329Z,90.00
2018-09-01T18:38:43.008Z,90.00
2018-09-01T18:41:12.335Z,90.30
2018-09-01T18:43:54.521Z,90.30
2018-09-01T18:46:25.967Z,90.30
2018-09-01T18:48:54.396Z,90.30
2018-09-01T18:51:22.392Z,90.60
2018-09-01T18:53:50.153Z,90.60
2018-09-01T18:56:17.652Z,90.50
2018-09-01T18:58:47.241Z,90.50
2018-09-01T19:01:17.835Z,90.60
2018-09-01T19:03:56.024Z,90.80
2018-09-01T19:06:23.992Z,90.90
2018-09-01T19:08:55.326Z,91.10
2018-09-01T19:11:35.858Z,90.90
2018-09-01T19:14:04.743Z,91.10
2018-09-01T19:16:32.453Z,91.10
2018-09-01T19:19:00.027Z,90.90
2018-09-01T19:21:27.664Z,91.00
2018-09-01T19:23:55.196Z,91.20
2018-09-01T19:26:23.163Z,91.40
2018-09-01T19:28:51.756Z,91.40
2018-09-01T19:31:19.323Z,91.30
2018-09-01T19:33:51.017Z,91.40
2018-09-01T19:36:19.679Z,91.70
2018-09-01T19:38:47.657Z,91.50
2018-09-01T19:41:15.180Z,91.70
2018-09-01T19:43:42.885Z,91.80
2018-09-01T19:46:10.575Z,91.90
2018-09-01T19:48:38.714Z,91.80
2018-09-01T19:51:06.325Z,91.90
2018-09-01T19:53:33.995Z,92.00
2018-09-01T19:56:01.463Z,91.90
2018-09-01T19:58:31.957Z,92.20
2018-09-01T20:00:59.428Z,92.00
2018-09-01T20:03:27.164Z,92.20
2018-09-01T20:05:54.735Z,92.40
2018-09-01T20:08:22.404Z,92.50
2018-09-01T20:10:52.099Z,92.80
2018-09-01T20:13:20.271Z,93.00
2018-09-01T20:15:48.590Z,92.90
2018-09-01T20:18:16.131Z,92.90
2018-09-01T20:20:43.807Z,93.10
2018-09-01T20:23:11.375Z,93.10
2018-09-01T20:25:38.815Z,93.10
2018-09-01T20:28:06.952Z,93.10
2018-09-01T20:30:34.516Z,93.10
2018-09-01T20:33:02.542Z,93.00
2018-09-01T20:35:36.817Z,93.10
2018-09-01T20:38:04.581Z,92.90
2018-09-01T20:40:32.088Z,93.20
2018-09-01T20:43:00.197Z,93.20
2018-09-01T20:45:27.669Z,93.00
2018-09-01T20:47:55.235Z,93.40
2018-09-01T20:50:22.812Z,93.30
2018-09-01T20:52:50.334Z,93.50
2018-09-01T20:55:18.345Z,93.10
2018-09-01T20:57:45.974Z,93.30
2018-09-01T21:00:13.570Z,93.40
2018-09-01T21:02:41.063Z,93.40
2018-09-01T21:05:09.236Z,93.60
2018-09-01T21:07:37.220Z,93.40
2018-09-01T21:10:05.423Z,93.60
2018-09-01T21:12:33.529Z,93.70
2018-09-01T21:15:01.694Z,93.50
2018-09-01T21:17:29.447Z,93.70
2018-09-01T21:19:58.439Z,93.90
2018-09-01T21:22:26.427Z,93.90
2018-09-01T21:24:54.318Z,93.90
2018-09-01T21:27:25.506Z,94.10
2018-09-01T21:29:53.721Z,94.00
2018-09-01T21:32:23.683Z,93.90
2018-09-01T21:34:51.291Z,93.90
2018-09-01T21:37:18.892Z,94.10
2018-09-01T21:39:47.065Z,94.20
2018-09-01T21:42:14.985Z,94.20
2018-09-01T21:44:43.028Z,94.20
2018-09-01T21:47:10.525Z,94.20
2018-09-01T21:49:38.558Z,94.30
2018-09-01T21:52:06.332Z,94.30
2018-09-01T21:54:34.302Z,94.30
2018-09-01T21:57:02.293Z,94.40
2018-09-01T21:59:29.868Z,94.30
2018-09-01T22:02:04.156Z,94.40
2018-09-01T22:04:37.763Z,94.40
2018-09-01T22:07:05.406Z,94.40
2018-09-01T22:09:32.908Z,94.50
2018-09-01T22:12:00.327Z,94.60
2018-09-01T22:14:27.877Z,94.50
2018-09-01T22:16:55.355Z,94.60
2018-09-01T22:19:22.833Z,94.80
2018-09-01T22:21:50.379Z,94.70
2018-09-01T22:24:17.828Z,94.70
2018-09-01T22:26:45.441Z,94.70
2018-09-01T22:29:12.918Z,94.80
2018-09-01T22:31:40.550Z,94.90
2018-09-01T22:34:08.052Z,94.80
2018-09-01T22:36:35.476Z,94.90
2018-09-01T22:39:04.240Z,95.00
2018-09-01T22:41:31.730Z,95.00
2018-09-01T22:43:59.283Z,95.10
2018-09-01T22:46:28.010Z,95.20
2018-09-01T22:48:55.633Z,95.10
2018-09-01T22:51:23.072Z,95.20
2018-09-01T22:53:50.602Z,95.20
2018-09-01T22:56:18.122Z,95.10
2018-09-01T22:58:45.606Z,95.20
2018-09-01T23:01:13.132Z,95.30
2018-09-01T23:03:40.656Z,95.30
2018-09-01T23:06:08.209Z,95.10
2018-09-01T23:08:35.665Z,95.20
2018-09-01T23:11:03.347Z,95.30
2018-09-01T23:13:30.870Z,95.30
2018-09-01T23:15:58.547Z,95.40
2018-09-01T23:18:25.996Z,95.40
2018-09-01T23:20:53.460Z,95.40
2018-09-01T23:23:20.912Z,95.40
2018-09-01T23:25:48.582Z,95.50
2018-09-01T23:28:16.044Z,95.40
2018-09-01T23:30:43.502Z,95.40
2018-09-01T23:33:11.183Z,95.50
2018-09-01T23:35:38.737Z,95.50
2018-09-01T23:38:06.292Z,95.60
2018-09-01T23:40:33.994Z,95.60
2018-09-01T23:43:01.560Z,95.60
2018-09-01T23:45:29.042Z,95.60
2018-09-01T23:48:06.864Z,95.60
2018-09-01T23:50:34.299Z,95.60
2018-09-01T23:53:01.803Z,95.70
2018-09-01T23:55:29.468Z,95.70
2018-09-01T23:57:56.943Z,95.80
